createdAt,value
2023-04-23T00:01:06.846Z,14.77
2023-04-23T00:03:34.385Z,14.88
2023-04-23T00:06:05.695Z,13.85
2023-04-23T00:08:32.943Z,18.88
2023-04-23T00:10:59.733Z,11.93
2023-04-23T00:13:26.486Z,19.60
2023-04-23T00:15:53.400Z,15.20
2023-04-23T00:18:20.653Z,16.00
2023-04-23T00:20:47.070Z,12.98
2023-04-23T00:23:13.500Z,13.93
2023-04-23T00:25:39.997Z,16.02
2023-04-23T00:28:06.441Z,14.30
2023-04-23T00:30:33.620Z,15.32
2023-04-23T00:33:00.123Z,16.17
2023-04-23T00:35:26.856Z,16.27
2023-04-23T00:37:53.304Z,17.55
2023-04-23T00:40:21.140Z,14.82
2023-04-23T00:42:49.183Z,16.38
2023-04-23T00:45:16.119Z,13.77
2023-04-23T00:47:43.363Z,15.27
2023-04-23T00:50:09.861Z,15.57
2023-04-23T00:52:39.073Z,17.52
2023-04-23T00:55:05.952Z,16.77
2023-04-23T00:57:33.308Z,17.52
2023-04-23T01:00:00.461Z,14.85
2023-04-23T01:02:28.540Z,16.38
2023-04-23T01:04:55.916Z,20.38
2023-04-23T01:07:22.830Z,17.50
2023-04-23T01:09:50.515Z,15.73
2023-04-23T01:12:16.960Z,17.23
2023-04-23T01:14:43.942Z,11.70
2023-04-23T01:17:12.172Z,14.35
2023-04-23T01:19:39.350Z,15.10
2023-04-23T01:22:14.255Z,16.15
2023-04-23T01:24:42.687Z,13.57
2023-04-23T01:27:10.307Z,15.10
2023-04-23T01:29:38.418Z,11.68
2023-04-23T01:32:05.591Z,13.48
2023-04-23T01:34:32.754Z,13.23
2023-04-23T01:36:59.433Z,11.70
2023-04-23T01:39:26.262Z,13.07
2023-04-23T01:41:53.329Z,15.98
2023-04-23T01:44:19.755Z,14.85
2023-04-23T01:46:46.813Z,13.05
2023-04-23T01:49:14.459Z,16.08
2023-04-23T01:51:40.872Z,15.48
2023-04-23T01:54:07.284Z,14.43
2023-04-23T01:56:35.591Z,10.38
2023-04-23T01:59:02.505Z,13.43
2023-04-23T02:01:45.287Z,11.30
2023-04-23T02:04:13.362Z,12.60
2023-04-23T02:06:41.155Z,14.75
2023-04-23T02:09:08.100Z,16.83
2023-04-23T02:11:34.595Z,14.82
2023-04-23T02:14:01.978Z,17.00
2023-04-23T02:16:29.113Z,16.75
2023-04-23T02:18:55.874Z,16.80
2023-04-23T02:21:24.374Z,12.57
2023-04-23T02:23:51.387Z,18.88
2023-04-23T02:26:18.805Z,13.13
2023-04-23T02:28:46.163Z,18.42
2023-04-23T02:31:12.811Z,14.55
2023-04-23T02:33:39.286Z,16.63
2023-04-23T02:36:06.018Z,15.80
2023-04-23T02:38:32.560Z,14.85
2023-04-23T02:40:59.095Z,15.32
2023-04-23T02:43:25.539Z,13.68
2023-04-23T02:45:51.930Z,16.65
2023-04-23T02:48:18.617Z,16.38
2023-04-23T02:50:45.039Z,13.32
2023-04-23T02:53:11.504Z,14.45
2023-04-23T02:55:37.980Z,15.52
2023-04-23T02:58:04.484Z,18.77
2023-04-23T03:00:33.202Z,18.15
2023-04-23T03:02:59.779Z,18.48
2023-04-23T03:05:26.334Z,18.33
2023-04-23T03:07:52.779Z,14.55
2023-04-23T03:10:19.310Z,14.30
2023-04-23T03:12:45.776Z,18.98
2023-04-23T03:15:12.650Z,25.15
2023-04-23T03:17:39.362Z,16.58
2023-04-23T03:20:08.704Z,16.75
2023-04-23T03:22:36.078Z,23.08
2023-04-23T03:25:03.866Z,13.10
2023-04-23T03:27:30.332Z,14.88
2023-04-23T03:29:56.911Z,18.23
2023-04-23T03:32:23.469Z,19.27
2023-04-23T03:34:50.027Z,17.45
2023-04-23T03:37:16.776Z,16.33
2023-04-23T03:39:43.278Z,14.35
2023-04-23T03:42:11.114Z,14.02
2023-04-23T03:44:38.695Z,13.60
2023-04-23T03:47:05.717Z,12.63
2023-04-23T03:49:32.572Z,13.73
2023-04-23T03:51:59.052Z,15.13
2023-04-23T03:54:26.538Z,17.42
2023-04-23T03:57:12.100Z,15.95
2023-04-23T03:59:49.277Z,16.27
2023-04-23T04:02:15.848Z,14.82
2023-04-23T04:04:46.221Z,17.27
2023-04-23T04:07:13.123Z,13.15
2023-04-23T04:09:39.749Z,15.02
2023-04-23T04:12:06.311Z,16.67
2023-04-23T04:14:33.022Z,12.15
2023-04-23T04:16:59.432Z,14.05
2023-04-23T04:19:25.913Z,15.02
2023-04-23T04:21:52.360Z,13.23
2023-04-23T04:24:18.753Z,13.60
2023-04-23T04:26:45.938Z,13.98
2023-04-23T04:29:12.612Z,17.48
2023-04-23T04:31:39.188Z,10.93
2023-04-23T04:34:07.206Z,12.70
2023-04-23T04:36:35.135Z,15.95
2023-04-23T04:39:03.384Z,14.50
2023-04-23T04:41:29.870Z,12.68
2023-04-23T04:43:56.747Z,14.57
2023-04-23T04:46:23.267Z,16.05
2023-04-23T04:48:50.018Z,14.23
2023-04-23T04:51:16.450Z,14.13
2023-04-23T04:53:42.899Z,17.55
2023-04-23T04:56:09.328Z,18.90
2023-04-23T04:58:36.367Z,13.25
2023-04-23T05:01:02.982Z,13.18
2023-04-23T05:03:29.614Z,14.32
2023-04-23T05:05:56.457Z,14.48
2023-04-23T05:08:22.952Z,15.98
2023-04-23T05:10:50.441Z,13.02
2023-04-23T05:13:17.659Z,11.20
2023-04-23T05:15:45.529Z,11.35
2023-04-23T05:18:11.969Z,10.27
2023-04-23T05:20:38.486Z,12.02
2023-04-23T05:23:04.914Z,16.95
2023-04-23T05:25:32.029Z,15.45
2023-04-23T05:27:58.467Z,11.75
2023-04-23T05:30:24.947Z,11.55
2023-04-23T05:32:51.428Z,12.02
2023-04-23T05:35:17.895Z,12.80
2023-04-23T05:37:44.304Z,13.07
2023-04-23T05:40:10.994Z,11.75
2023-04-23T05:42:37.438Z,12.85
2023-04-23T05:45:06.626Z,14.80
2023-04-23T05:47:34.470Z,11.18
2023-04-23T05:50:01.640Z,13.90
2023-04-23T05:52:31.343Z,12.55
2023-04-23T05:54:57.802Z,13.73
2023-04-23T05:57:24.234Z,16.20
2023-04-23T05:59:50.667Z,12.65
2023-04-23T06:02:17.216Z,13.88
2023-04-23T06:04:44.057Z,9.85
2023-04-23T06:07:11.382Z,12.90
2023-04-23T06:09:37.830Z,11.80
2023-04-23T06:12:04.318Z,14.43
2023-04-23T06:14:30.734Z,11.68
2023-04-23T06:16:57.156Z,11.25
2023-04-23T06:19:26.470Z,12.43
2023-04-23T06:21:52.913Z,12.23
2023-04-23T06:24:19.321Z,15.15
2023-04-23T06:26:46.122Z,10.52
2023-04-23T06:29:16.505Z,12.85
2023-04-23T06:31:51.094Z,12.57
2023-04-23T06:34:17.619Z,11.10
2023-04-23T06:36:44.092Z,12.70
2023-04-23T06:39:10.523Z,12.73
2023-04-23T06:41:36.948Z,11.00
2023-04-23T06:44:12.025Z,13.20
2023-04-23T06:46:49.509Z,10.40
2023-04-23T06:49:16.003Z,12.45
2023-04-23T06:51:42.468Z,10.98
2023-04-23T06:54:08.884Z,11.70
2023-04-23T06:56:35.380Z,11.75
2023-04-23T06:59:01.937Z,11.60
2023-04-23T07:01:29.488Z,13.52
2023-04-23T07:03:56.045Z,19.10
2023-04-23T07:06:22.556Z,11.98
2023-04-23T07:08:49.158Z,11.15
2023-04-23T07:11:15.835Z,18.73
2023-04-23T07:13:42.416Z,16.65
2023-04-23T07:16:08.890Z,13.13
2023-04-23T07:18:35.342Z,14.80
2023-04-23T07:21:02.229Z,15.15
2023-04-23T07:23:28.703Z,11.80
2023-04-23T07:25:55.143Z,16.65
2023-04-23T07:28:21.577Z,13.38
2023-04-23T07:30:48.175Z,15.60
2023-04-23T07:33:14.697Z,12.35
2023-04-23T07:35:41.120Z,12.00
2023-04-23T07:38:07.638Z,12.48
2023-04-23T07:40:34.066Z,14.15
2023-04-23T07:43:01.057Z,16.02
2023-04-23T07:45:27.507Z,13.30
2023-04-23T07:47:53.917Z,14.93
2023-04-23T07:50:20.666Z,13.63
2023-04-23T07:52:47.105Z,12.85
2023-04-23T07:55:13.560Z,13.00
2023-04-23T07:57:39.989Z,17.30
2023-04-23T08:00:09.367Z,12.57
2023-04-23T08:02:38.668Z,15.65
2023-04-23T08:05:05.622Z,19.67
2023-04-23T08:07:32.235Z,12.68
2023-04-23T08:10:02.857Z,12.77
2023-04-23T08:12:30.149Z,14.80
2023-04-23T08:14:56.625Z,12.27
2023-04-23T08:17:29.222Z,14.15
2023-04-23T08:19:55.681Z,12.73
2023-04-23T08:22:22.312Z,12.40
2023-04-23T08:24:48.816Z,14.85
2023-04-23T08:27:15.228Z,14.85
2023-04-23T08:29:41.884Z,13.85
2023-04-23T08:32:08.550Z,13.90
2023-04-23T08:34:35.868Z,15.25
2023-04-23T08:37:02.354Z,16.38
2023-04-23T08:39:30.517Z,15.65
2023-04-23T08:42:03.533Z,17.27
2023-04-23T08:44:31.343Z,13.57
2023-04-23T08:46:58.326Z,16.10
2023-04-23T08:49:29.452Z,17.15
2023-04-23T08:54:26.982Z,16.17
2023-04-23T08:57:00.810Z,10.88
2023-04-23T08:59:30.690Z,11.32
2023-04-23T09:01:57.551Z,10.95
2023-04-23T09:04:25.563Z,15.75
2023-04-23T09:06:52.441Z,15.85
2023-04-23T09:09:23.575Z,12.82
2023-04-23T09:11:51.273Z,13.23
2023-04-23T09:14:19.743Z,7.78
2023-04-23T09:16:46.237Z,7.80
2023-04-23T09:19:13.256Z,7.22
2023-04-23T09:21:42.566Z,8.55
2023-04-23T09:24:13.126Z,8.65
2023-04-23T09:26:47.027Z,7.30
2023-04-23T09:29:19.240Z,6.65
2023-04-23T09:31:47.931Z,6.63
2023-04-23T09:34:21.790Z,7.15
2023-04-23T09:36:52.764Z,8.07
2023-04-23T09:41:48.607Z,9.90
2023-04-23T09:44:19.653Z,9.98
2023-04-23T09:49:13.294Z,14.38
2023-04-23T09:51:41.603Z,11.45
2023-04-23T09:54:13.376Z,17.02
2023-04-23T09:56:41.475Z,19.98
2023-04-23T10:02:02.797Z,21.40
2023-04-23T10:04:29.631Z,19.77
2023-04-23T10:07:17.255Z,21.40
2023-04-23T10:09:46.352Z,22.50
2023-04-23T10:12:29.605Z,22.27
2023-04-23T10:15:00.277Z,23.55
2023-04-23T10:17:27.040Z,26.27
2023-04-23T10:19:55.598Z,23.15
2023-04-23T10:22:23.045Z,28.23
2023-04-23T10:24:55.873Z,23.20
2023-04-23T10:27:44.562Z,26.98
2023-04-23T10:30:16.232Z,24.80
2023-04-23T10:32:44.831Z,22.77
2023-04-23T10:35:11.408Z,26.40
2023-04-23T10:37:38.587Z,25.67
2023-04-23T10:40:12.824Z,21.45
2023-04-23T10:42:40.632Z,20.92
2023-04-23T10:47:47.069Z,22.48
2023-04-23T10:50:22.474Z,22.88
2023-04-23T10:52:53.324Z,25.02
2023-04-23T10:55:27.767Z,26.38
2023-04-23T10:58:00.888Z,25.20
2023-04-23T11:00:30.681Z,28.10
2023-04-23T11:02:57.383Z,28.33
2023-04-23T11:05:25.786Z,26.42
2023-04-23T11:10:54.188Z,21.10
2023-04-23T11:13:23.676Z,19.65
2023-04-23T11:16:14.009Z,23.38
2023-04-23T11:19:04.972Z,17.33
2023-04-23T11:24:16.698Z,13.65
2023-04-23T11:26:44.020Z,11.73
2023-04-23T11:29:14.437Z,10.52
2023-04-23T11:31:50.659Z,7.85
2023-04-23T11:34:28.610Z,6.55
2023-04-23T11:36:55.149Z,8.32
2023-04-23T11:39:24.174Z,7.35
2023-04-23T11:41:52.301Z,9.43
2023-04-23T11:44:21.963Z,7.57
2023-04-23T11:46:49.638Z,7.95
2023-04-23T11:49:18.578Z,7.70
2023-04-23T11:51:46.018Z,5.45
2023-04-23T11:54:13.672Z,6.55
2023-04-23T11:56:41.164Z,6.05
2023-04-23T11:59:08.314Z,6.75
2023-04-23T12:01:47.051Z,7.05
2023-04-23T12:04:20.977Z,7.07
2023-04-23T12:06:48.822Z,10.43
2023-04-23T12:09:16.034Z,6.60
2023-04-23T12:11:43.597Z,8.73
2023-04-23T12:14:11.107Z,8.60
2023-04-23T12:16:41.299Z,8.07
2023-04-23T12:19:09.747Z,8.13
2023-04-23T12:21:48.073Z,8.75
2023-04-23T12:24:14.867Z,10.07
2023-04-23T12:26:42.234Z,7.47
2023-04-23T12:29:08.698Z,7.68
2023-04-23T12:31:37.300Z,7.45
2023-04-23T12:34:06.087Z,6.82
2023-04-23T12:36:33.738Z,6.60
2023-04-23T12:39:22.131Z,7.82
2023-04-23T12:41:51.282Z,7.03
2023-04-23T12:44:17.691Z,5.03
2023-04-23T12:46:44.417Z,6.32
2023-04-23T12:49:10.853Z,7.93
2023-04-23T12:51:37.605Z,4.43
2023-04-23T12:54:04.295Z,4.65
2023-04-23T12:56:30.706Z,4.20
2023-04-23T12:58:57.495Z,7.55
2023-04-23T13:01:23.895Z,5.05
2023-04-23T13:03:50.940Z,4.03
2023-04-23T13:06:17.433Z,4.43
2023-04-23T13:08:43.813Z,6.28
2023-04-23T13:11:11.217Z,6.57
2023-04-23T13:13:37.674Z,5.53
2023-04-23T13:16:04.180Z,4.90
2023-04-23T13:18:30.577Z,4.57
2023-04-23T13:20:57.499Z,6.05
2023-04-23T13:23:23.885Z,4.32
2023-04-23T13:25:50.301Z,6.22
2023-04-23T13:28:16.714Z,4.55
2023-04-23T13:30:43.117Z,5.25
2023-04-23T13:33:09.551Z,3.80
2023-04-23T13:35:37.715Z,4.90
2023-04-23T13:38:04.757Z,6.03
2023-04-23T13:40:31.168Z,6.68
2023-04-23T13:42:57.582Z,4.70
2023-04-23T13:45:23.979Z,4.05
2023-04-23T13:47:50.697Z,3.97
2023-04-23T13:50:17.176Z,3.45
2023-04-23T13:52:43.706Z,2.60
2023-04-23T13:55:10.355Z,6.35
2023-04-23T13:57:38.125Z,4.45
2023-04-23T14:00:05.391Z,6.45
2023-04-23T14:02:31.903Z,3.00
2023-04-23T14:04:58.611Z,2.80
2023-04-23T14:07:25.063Z,5.07
2023-04-23T14:09:52.791Z,2.38
2023-04-23T14:12:20.039Z,2.15
2023-04-23T14:14:46.450Z,2.35
2023-04-23T14:17:12.834Z,2.22
2023-04-23T14:19:39.265Z,3.42
2023-04-23T14:22:06.156Z,3.72
2023-04-23T14:24:39.405Z,2.10
2023-04-23T14:27:06.085Z,1.88
2023-04-23T14:29:46.183Z,1.92
2023-04-23T14:32:12.925Z,1.70
2023-04-23T14:34:39.595Z,2.15
2023-04-23T14:37:06.199Z,2.78
2023-04-23T14:39:33.930Z,2.78
2023-04-23T14:42:01.155Z,4.00
2023-04-23T14:44:29.083Z,2.05
2023-04-23T14:46:56.878Z,3.50
2023-04-23T14:49:24.001Z,2.97
2023-04-23T14:51:54.144Z,2.25
2023-04-23T14:54:21.584Z,2.80
2023-04-23T14:56:47.981Z,2.05
2023-04-23T14:59:15.035Z,1.58
2023-04-23T15:01:41.535Z,2.25
2023-04-23T15:04:08.086Z,5.07
2023-04-23T15:06:34.520Z,3.67
2023-04-23T15:09:00.929Z,1.80
2023-04-23T15:11:27.337Z,2.15
2023-04-23T15:14:08.315Z,2.45
2023-04-23T15:16:48.262Z,3.03
2023-04-23T15:19:18.112Z,2.00
2023-04-23T15:21:45.085Z,1.70
2023-04-23T15:24:11.502Z,4.63
2023-04-23T15:26:38.272Z,4.32
2023-04-23T15:29:08.440Z,5.05
2023-04-23T15:31:34.904Z,2.03
2023-04-23T15:34:01.541Z,4.18
2023-04-23T15:36:28.013Z,2.85
2023-04-23T15:38:54.501Z,2.15
2023-04-23T15:41:20.964Z,1.67
2023-04-23T15:43:50.223Z,4.63
2023-04-23T15:46:16.671Z,1.95
2023-04-23T15:48:43.936Z,2.10
2023-04-23T15:51:10.454Z,2.63
2023-04-23T15:53:36.864Z,4.22
2023-04-23T15:56:03.526Z,8.07
2023-04-23T15:58:29.946Z,8.82
2023-04-23T16:00:56.411Z,3.35
2023-04-23T16:03:23.011Z,3.40
2023-04-23T16:05:50.973Z,1.88
2023-04-23T16:08:17.432Z,2.17
2023-04-23T16:10:43.899Z,2.97
2023-04-23T16:13:10.534Z,4.05
2023-04-23T16:15:36.987Z,4.15
2023-04-23T16:18:03.521Z,3.78
2023-04-23T16:20:30.563Z,3.15
2023-04-23T16:22:57.010Z,6.95
2023-04-23T16:25:24.116Z,1.95
2023-04-23T16:27:50.673Z,1.88
2023-04-23T16:30:17.092Z,2.83
2023-04-23T16:32:43.592Z,2.03
2023-04-23T16:35:10.341Z,1.83
2023-04-23T16:37:36.739Z,1.75
2023-04-23T16:40:03.363Z,1.75
2023-04-23T16:42:29.795Z,2.90
2023-04-23T16:44:56.267Z,1.70
2023-04-23T16:47:22.742Z,1.88
2023-04-23T16:49:49.180Z,2.50
2023-04-23T16:52:16.082Z,2.10
2023-04-23T16:54:42.761Z,1.95
2023-04-23T16:57:09.359Z,1.77
2023-04-23T16:59:35.893Z,2.55
2023-04-23T17:02:02.377Z,4.78
2023-04-23T17:04:28.967Z,1.98
2023-04-23T17:06:55.654Z,3.15
2023-04-23T17:09:22.147Z,1.85
2023-04-23T17:11:48.554Z,4.22
2023-04-23T17:14:14.964Z,3.55
2023-04-23T17:16:41.717Z,1.67
2023-04-23T17:19:08.302Z,2.25
2023-04-23T17:21:34.757Z,2.40
2023-04-23T17:24:01.266Z,6.38
2023-04-23T17:26:27.732Z,3.33
2023-04-23T17:28:54.230Z,1.90
2023-04-23T17:31:20.924Z,2.10
2023-04-23T17:33:49.469Z,1.52
2023-04-23T17:36:17.163Z,1.95
2023-04-23T17:38:43.710Z,2.03
2023-04-23T17:41:10.350Z,2.28
2023-04-23T17:43:36.779Z,5.88
2023-04-23T17:46:03.528Z,5.85
2023-04-23T17:48:30.221Z,2.95
2023-04-23T17:50:56.684Z,2.92
2023-04-23T17:53:23.140Z,3.05
2023-04-23T17:55:49.542Z,4.38
2023-04-23T17:58:16.484Z,2.22
2023-04-23T18:00:43.154Z,3.40
2023-04-23T18:03:11.737Z,2.45
2023-04-23T18:05:38.408Z,2.03
2023-04-23T18:08:06.830Z,2.38
2023-04-23T18:10:33.383Z,1.65
2023-04-23T18:13:02.833Z,6.53
2023-04-23T18:15:32.168Z,2.60
2023-04-23T18:17:58.961Z,3.28
2023-04-23T18:20:26.565Z,2.55
2023-04-23T18:22:55.912Z,3.42
2023-04-23T18:25:22.474Z,2.28
2023-04-23T18:27:48.990Z,3.30
2023-04-23T18:30:15.577Z,4.65
2023-04-23T18:32:47.020Z,3.13
2023-04-23T18:35:13.711Z,2.75
2023-04-23T18:38:02.638Z,1.88
2023-04-23T18:40:29.081Z,2.95
2023-04-23T18:42:55.896Z,3.53
2023-04-23T18:45:22.295Z,3.63
2023-04-23T18:47:58.131Z,2.13
2023-04-23T18:50:38.189Z,3.65
2023-04-23T18:53:05.011Z,4.22
2023-04-23T18:55:31.468Z,3.38
2023-04-23T18:57:58.642Z,3.92
2023-04-23T19:00:25.453Z,2.42
2023-04-23T19:02:52.274Z,2.92
2023-04-23T19:05:18.796Z,5.72
2023-04-23T19:07:45.280Z,3.83
2023-04-23T19:10:12.133Z,2.47
2023-04-23T19:12:38.808Z,4.32
2023-04-23T19:15:05.922Z,2.00
2023-04-23T19:17:32.554Z,2.08
2023-04-23T19:19:59.008Z,5.38
2023-04-23T19:22:25.772Z,5.03
2023-04-23T19:24:52.236Z,5.47
2023-04-23T19:27:18.645Z,2.33
2023-04-23T19:29:46.437Z,2.45
2023-04-23T19:32:12.892Z,5.63
2023-04-23T19:34:39.315Z,5.05
2023-04-23T19:37:06.610Z,7.93
2023-04-23T19:39:33.050Z,4.07
2023-04-23T19:41:59.452Z,4.38
2023-04-23T19:44:25.864Z,2.65
2023-04-23T19:46:52.403Z,2.35
2023-04-23T19:49:18.869Z,3.58
2023-04-23T19:51:46.161Z,4.82
2023-04-23T19:54:12.581Z,6.43
2023-04-23T19:56:38.983Z,2.58
2023-04-23T19:59:09.491Z,2.90
2023-04-23T20:01:36.247Z,2.47
2023-04-23T20:04:06.965Z,3.38
2023-04-23T20:06:33.569Z,4.10
2023-04-23T20:09:18.704Z,5.60
2023-04-23T20:11:46.189Z,3.17
2023-04-23T20:14:15.428Z,3.80
2023-04-23T20:16:41.942Z,4.63
2023-04-23T20:19:11.825Z,3.40
2023-04-23T20:21:39.402Z,3.35
2023-04-23T20:24:10.258Z,11.60
2023-04-23T20:26:37.773Z,4.07
2023-04-23T20:29:04.678Z,5.13
2023-04-23T20:31:31.333Z,3.30
2023-04-23T20:33:57.973Z,6.85
2023-04-23T20:36:28.666Z,4.53
2023-04-23T20:38:58.046Z,4.45
2023-04-23T20:41:26.429Z,7.32
2023-04-23T20:43:52.933Z,4.18
2023-04-23T20:46:19.397Z,5.68
2023-04-23T20:48:45.885Z,5.90
2023-04-23T20:51:12.308Z,4.28
2023-04-23T20:53:38.730Z,8.98
2023-04-23T20:56:05.136Z,6.55
2023-04-23T20:58:31.586Z,5.32
2023-04-23T21:00:58.042Z,6.65
2023-04-23T21:03:24.576Z,5.95
2023-04-23T21:05:51.089Z,7.35
2023-04-23T21:08:17.526Z,6.30
2023-04-23T21:10:44.458Z,6.30
2023-04-23T21:13:12.117Z,5.80
2023-04-23T21:15:38.863Z,7.93
2023-04-23T21:18:05.876Z,8.65
2023-04-23T21:20:32.467Z,5.88
2023-04-23T21:22:58.883Z,12.55
2023-04-23T21:25:26.693Z,5.93
2023-04-23T21:27:55.169Z,8.10
2023-04-23T21:30:29.870Z,7.63
2023-04-23T21:32:56.335Z,6.88
2023-04-23T21:35:22.820Z,7.05
2023-04-23T21:37:49.227Z,6.63
2023-04-23T21:40:15.694Z,5.80
2023-04-23T21:42:42.190Z,6.10
2023-04-23T21:45:09.005Z,9.45
2023-04-23T21:47:35.559Z,8.05
2023-04-23T21:50:02.121Z,7.68
2023-04-23T21:52:28.710Z,7.63
2023-04-23T21:54:55.154Z,6.30
2023-04-23T21:57:21.585Z,6.97
2023-04-23T21:59:48.022Z,7.70
2023-04-23T22:02:14.799Z,6.45
2023-04-23T22:04:41.254Z,6.15
2023-04-23T22:07:12.378Z,6.05
2023-04-23T22:09:39.291Z,7.10
2023-04-23T22:12:05.848Z,6.93
2023-04-23T22:14:32.281Z,9.25
2023-04-23T22:16:58.972Z,6.88
2023-04-23T22:19:25.929Z,7.43
2023-04-23T22:21:52.346Z,6.82
2023-04-23T22:24:18.775Z,7.93
2023-04-23T22:26:45.688Z,9.80
2023-04-23T22:29:12.178Z,6.72
2023-04-23T22:31:38.601Z,6.97
2023-04-23T22:34:05.078Z,8.50
2023-04-23T22:36:32.583Z,7.47
2023-04-23T22:38:59.010Z,10.82
2023-04-23T22:41:25.824Z,5.78
2023-04-23T22:43:54.087Z,6.70
2023-04-23T22:46:20.538Z,7.90
2023-04-23T22:48:47.451Z,6.18
2023-04-23T22:51:14.157Z,6.88
2023-04-23T22:53:40.790Z,6.50
2023-04-23T22:56:07.526Z,12.50
2023-04-23T22:58:34.077Z,8.07
2023-04-23T23:01:00.504Z,6.75
2023-04-23T23:03:27.263Z,7.93
2023-04-23T23:05:53.823Z,6.10
2023-04-23T23:08:20.227Z,7.30
2023-04-23T23:10:46.634Z,8.25
2023-04-23T23:13:13.060Z,5.93
2023-04-23T23:15:39.538Z,6.22
2023-04-23T23:18:06.157Z,6.45
2023-04-23T23:20:32.666Z,6.45
2023-04-23T23:22:59.081Z,6.47
2023-04-23T23:25:25.625Z,7.53
2023-04-23T23:27:52.029Z,7.90
2023-04-23T23:30:18.464Z,7.60
2023-04-23T23:32:46.052Z,7.20
2023-04-23T23:35:12.604Z,5.78
2023-04-23T23:37:39.027Z,7.93
2023-04-23T23:40:06.081Z,6.28
2023-04-23T23:42:32.493Z,8.45
2023-04-23T23:44:58.898Z,8.20
2023-04-23T23:47:25.387Z,5.43
2023-04-23T23:49:51.821Z,7.47
2023-04-23T23:52:18.233Z,9.18
2023-04-23T23:54:44.640Z,7.43
2023-04-23T23:57:11.863Z,9.75
2023-04-23T23:59:38.516Z,8.63
